Airfield :
LOGIN :

Register | Disclaimer

   EN    FR    IT 

 










Legend :    VFR   Marginal VFR   IFR   Intensive IFR   Very Intensive IFR
Visi :
Ceiling :
>= 8 km
>= 3000ft
5 to 8 km
1000 to 3000 ft
1500m to 5 km
500 to 1000 ft
800 to 1500m
200 to 500 ft
< 800m
< 200 ft
Symbols :   Thunderstorms  Fog  Heavy snow  Heavy precipitations  Wind > 20 kt
SIGMETs :     Misc.  Thunderstorms  Icing  Turbulence  Mountain Waves  Volcanic Ashes







- Airport Elevation : 1416 ft
- IATA code : ZRH


LSZH - Zurich

CURRENT METAR :
  • 220850Z VRB02KT 9999 FEW022 BKN240 15/08 Q1025 NOSIG

EXPIRED METARs :
  • 220820Z VRB02KT 9999 FEW018 BKN240 14/09 Q1025 NOSIG
  • 220750Z VRB02KT 9999 FEW020 BKN210 13/09 Q1025 NOSIG
  • 220720Z VRB01KT CAVOK 12/09 Q1025 NOSIG
  • 220650Z VRB01KT 9999 FEW025 BKN250 12/08 Q1025 NOSIG
  • 220620Z VRB01KT 9999 FEW025 SCT200 BKN250 11/09 Q1024 NOSIG

TAF TAF LSZH
Valid from the 22 at 09:00 until the 23 at 15:00 UTC


220825Z 2209/2315 VRB03KT 9999 FEW020 BKN210 TX20/2214Z TN12/2304Z TX25/2314Z
BECMG 2209/2212 CAVOK
PROB30
TEMPO 2212/2217 28010KT
BECMG 2217/2220 9999 BKN070
PROB30 2218/2303 RA
BECMG 2307/2310 24010KT
ATIS : +41 43 816 2295 (DEP) +41 43 816 2294 (ARR)
No reported NOTAMs for that airfield.



MET'MAP, your aeronautical weather chart ! - Copyright ORBIFLY December 2007 - Disclaimer

ORBIFLY MET'MAP TEAM :

Programming & Development : Alexandra Zaïnal
Concept & Development : Baudouin d'Aumeries
Co-Development & Prog : Marc-Olivier Méhu
Technical & hardware support : Manuel Goepfert

Contact : metmap@orbifly.com




SOURCES & CREDITS :

   NOAA